createdAt,value
2023-02-19T00:01:27.218Z,19.90
2023-02-19T00:03:56.307Z,19.90
2023-02-19T00:06:25.458Z,19.80
2023-02-19T00:08:52.284Z,19.80
2023-02-19T00:11:21.968Z,19.80
2023-02-19T00:13:51.689Z,19.80
2023-02-19T00:16:21.563Z,19.70
2023-02-19T00:18:48.646Z,19.70
2023-02-19T00:21:16.042Z,19.70
2023-02-19T00:23:43.149Z,19.70
2023-02-19T00:26:18.108Z,19.70
2023-02-19T00:28:46.272Z,19.70
2023-02-19T00:31:18.617Z,19.70
2023-02-19T00:33:47.380Z,19.70
2023-02-19T00:36:14.563Z,19.70
2023-02-19T00:38:42.420Z,19.70
2023-02-19T00:41:19.107Z,19.70
2023-02-19T00:43:49.027Z,19.70
2023-02-19T00:46:23.701Z,19.60
2023-02-19T00:48:52.568Z,19.60
2023-02-19T00:51:22.106Z,19.60
2023-02-19T00:53:49.418Z,19.60
2023-02-19T00:56:16.582Z,19.60
2023-02-19T00:58:43.357Z,19.50
2023-02-19T01:01:11.375Z,19.50
2023-02-19T01:03:39.729Z,19.50
2023-02-19T01:06:08.921Z,19.50
2023-02-19T01:08:36.065Z,19.50
2023-02-19T01:11:04.268Z,19.50
2023-02-19T01:13:31.481Z,19.50
2023-02-19T01:16:05.365Z,19.50
2023-02-19T01:18:33.002Z,19.50
2023-02-19T01:21:00.044Z,19.40
2023-02-19T01:23:26.895Z,19.40
2023-02-19T01:25:53.653Z,19.50
2023-02-19T01:28:20.439Z,19.50
2023-02-19T01:30:47.226Z,19.50
2023-02-19T01:33:13.975Z,19.50
2023-02-19T01:35:40.779Z,19.50
2023-02-19T01:38:08.319Z,19.50
2023-02-19T01:40:35.212Z,19.50
2023-02-19T01:43:03.667Z,19.50
2023-02-19T01:45:32.507Z,19.50
2023-02-19T01:48:12.002Z,19.40
2023-02-19T01:50:47.507Z,19.50
2023-02-19T01:53:19.143Z,19.50
2023-02-19T01:55:48.498Z,19.50
2023-02-19T01:58:16.395Z,19.50
2023-02-19T02:00:43.441Z,19.60
2023-02-19T02:03:11.727Z,19.50
2023-02-19T02:05:57.386Z,19.60
2023-02-19T02:08:44.826Z,19.60
2023-02-19T02:11:12.403Z,19.60
2023-02-19T02:13:40.623Z,19.60
2023-02-19T02:16:16.456Z,19.60
2023-02-19T02:19:01.616Z,19.60
2023-02-19T02:21:29.264Z,19.60
2023-02-19T02:24:22.767Z,19.60
2023-02-19T02:27:12.733Z,19.60
2023-02-19T02:30:10.403Z,19.60
2023-02-19T02:33:01.712Z,19.50
2023-02-19T02:35:36.447Z,19.50
2023-02-19T02:38:08.113Z,19.50
2023-02-19T02:40:35.807Z,19.50
2023-02-19T02:43:02.758Z,19.40
2023-02-19T02:45:36.526Z,19.40
2023-02-19T02:48:18.613Z,19.40
2023-02-19T02:51:00.194Z,19.40
2023-02-19T02:54:02.619Z,19.40
2023-02-19T02:56:30.789Z,19.40
2023-02-19T02:59:00.544Z,19.30
2023-02-19T03:01:55.366Z,19.30
2023-02-19T03:05:03.758Z,19.40
2023-02-19T03:07:46.924Z,19.40
2023-02-19T03:10:20.445Z,19.40
2023-02-19T03:13:08.725Z,19.40
2023-02-19T03:16:21.038Z,19.40
2023-02-19T03:19:12.099Z,19.40
2023-02-19T03:21:41.494Z,19.40
2023-02-19T03:24:29.439Z,19.50
2023-02-19T03:27:02.548Z,19.50
2023-02-19T03:29:32.031Z,19.50
2023-02-19T03:32:04.302Z,19.50
2023-02-19T03:34:54.561Z,19.60
2023-02-19T03:37:36.583Z,19.60
2023-02-19T03:40:03.732Z,19.60
2023-02-19T03:42:46.652Z,19.60
2023-02-19T03:45:46.344Z,19.60
2023-02-19T03:48:35.764Z,19.60
2023-02-19T03:51:11.912Z,19.60
2023-02-19T03:53:38.764Z,19.60
2023-02-19T03:56:16.199Z,19.60
2023-02-19T03:59:09.923Z,19.60
2023-02-19T04:02:02.571Z,19.60
2023-02-19T04:04:36.087Z,19.70
2023-02-19T04:07:03.088Z,19.70
2023-02-19T04:09:44.440Z,19.70
2023-02-19T04:12:12.905Z,19.70
2023-02-19T04:15:12.466Z,19.70
2023-02-19T04:17:45.742Z,19.70
2023-02-19T04:20:14.385Z,19.80
2023-02-19T04:22:41.978Z,19.80
2023-02-19T04:25:09.201Z,19.70
2023-02-19T04:27:38.268Z,19.70
2023-02-19T04:30:07.561Z,19.70
2023-02-19T04:32:34.711Z,19.60
2023-02-19T04:35:01.469Z,19.60
2023-02-19T04:37:28.588Z,19.50
2023-02-19T04:39:55.335Z,19.40
2023-02-19T04:42:22.193Z,19.40
2023-02-19T04:44:48.939Z,19.40
2023-02-19T04:47:17.708Z,19.40
2023-02-19T04:49:45.634Z,19.40
2023-02-19T04:52:13.107Z,19.40
2023-02-19T04:54:39.860Z,19.40
2023-02-19T04:57:06.623Z,19.50
2023-02-19T04:59:33.429Z,19.50
2023-02-19T05:02:00.208Z,19.60
2023-02-19T05:04:27.080Z,19.60
2023-02-19T05:06:53.832Z,19.70
2023-02-19T05:09:20.660Z,19.70
2023-02-19T05:11:47.429Z,19.80
2023-02-19T05:14:14.189Z,19.90
2023-02-19T05:16:40.942Z,19.90
2023-02-19T05:19:10.282Z,20.00
2023-02-19T05:21:37.225Z,20.00
2023-02-19T05:24:04.310Z,20.00
2023-02-19T05:26:31.250Z,20.10
2023-02-19T05:28:59.302Z,20.10
2023-02-19T05:31:26.213Z,20.00
2023-02-19T05:33:55.412Z,20.00
2023-02-19T05:36:22.912Z,20.00
2023-02-19T05:38:55.059Z,20.00
2023-02-19T05:41:24.594Z,20.00
2023-02-19T05:43:51.671Z,20.10
2023-02-19T05:46:21.316Z,20.10
2023-02-19T05:48:49.677Z,20.20
2023-02-19T05:51:18.533Z,20.30
2023-02-19T05:53:46.059Z,20.30
2023-02-19T05:56:38.420Z,20.40
2023-02-19T05:59:14.103Z,20.40
2023-02-19T06:01:41.046Z,20.50
2023-02-19T06:04:08.814Z,20.50
2023-02-19T06:06:35.657Z,20.50
2023-02-19T06:09:02.622Z,20.60
2023-02-19T06:11:29.894Z,20.50
2023-02-19T06:13:57.042Z,20.50
2023-02-19T06:16:23.948Z,20.40
2023-02-19T06:18:51.107Z,20.30
2023-02-19T06:21:18.716Z,20.30
2023-02-19T06:23:46.061Z,20.30
2023-02-19T06:26:24.460Z,20.30
2023-02-19T06:28:52.983Z,20.30
2023-02-19T06:31:21.795Z,20.30
2023-02-19T06:33:50.605Z,20.40
2023-02-19T06:36:19.473Z,20.40
2023-02-19T06:38:46.266Z,20.40
2023-02-19T06:41:13.736Z,20.50
2023-02-19T06:43:41.033Z,20.50
2023-02-19T06:46:08.849Z,20.60
2023-02-19T06:48:35.877Z,20.60
2023-02-19T06:51:03.074Z,20.50
2023-02-19T06:53:30.173Z,20.50
2023-02-19T06:56:02.633Z,20.40
2023-02-19T06:58:29.766Z,20.40
2023-02-19T07:00:56.974Z,20.30
2023-02-19T07:03:23.808Z,20.20
2023-02-19T07:05:50.675Z,20.20
2023-02-19T07:08:17.997Z,20.20
2023-02-19T07:10:45.693Z,20.20
2023-02-19T07:13:12.629Z,20.20
2023-02-19T07:15:39.542Z,20.20
2023-02-19T07:18:10.298Z,20.20
2023-02-19T07:20:37.539Z,20.30
2023-02-19T07:23:04.472Z,20.30
2023-02-19T07:25:31.448Z,20.40
2023-02-19T07:27:58.266Z,20.40
2023-02-19T07:30:25.178Z,20.50
2023-02-19T07:32:51.998Z,20.50
2023-02-19T07:35:18.879Z,20.50
2023-02-19T07:37:45.682Z,20.50
2023-02-19T07:40:12.453Z,20.50
2023-02-19T07:42:39.395Z,20.50
2023-02-19T07:45:06.512Z,20.40
2023-02-19T07:47:33.291Z,20.40
2023-02-19T07:50:00.061Z,20.30
2023-02-19T07:52:26.886Z,20.30
2023-02-19T07:54:53.657Z,20.20
2023-02-19T07:57:20.463Z,20.20
2023-02-19T07:59:47.295Z,20.20
2023-02-19T08:02:37.659Z,20.20
2023-02-19T08:05:05.919Z,20.20
2023-02-19T08:07:34.470Z,20.20
2023-02-19T08:10:20.803Z,20.20
2023-02-19T08:13:17.519Z,20.10
2023-02-19T08:15:44.483Z,20.10
2023-02-19T08:18:12.357Z,20.20
2023-02-19T08:20:39.181Z,20.10
2023-02-19T08:23:06.481Z,20.10
2023-02-19T08:25:33.869Z,20.10
2023-02-19T08:28:01.305Z,20.10
2023-02-19T08:30:30.283Z,20.10
2023-02-19T08:33:01.853Z,20.10
2023-02-19T08:35:29.360Z,20.10
2023-02-19T08:37:59.082Z,20.00
2023-02-19T08:40:26.554Z,20.00
2023-02-19T08:42:53.349Z,19.90
2023-02-19T08:45:20.336Z,19.90
2023-02-19T08:47:47.186Z,19.80
2023-02-19T08:50:13.924Z,19.80
2023-02-19T08:52:40.659Z,19.80
2023-02-19T08:55:07.802Z,19.70
2023-02-19T08:57:37.749Z,19.70
2023-02-19T09:00:06.693Z,19.70
2023-02-19T09:02:34.299Z,19.70
2023-02-19T09:05:01.228Z,19.70
2023-02-19T09:07:28.336Z,19.70
2023-02-19T09:09:55.120Z,19.70
2023-02-19T09:12:23.333Z,19.70
2023-02-19T09:14:50.358Z,19.70
2023-02-19T09:17:17.162Z,19.70
2023-02-19T09:19:43.928Z,19.70
2023-02-19T09:22:10.826Z,19.70
2023-02-19T09:24:37.595Z,19.60
2023-02-19T09:27:04.368Z,19.60
2023-02-19T09:29:31.104Z,19.60
2023-02-19T09:31:59.493Z,19.60
2023-02-19T09:34:27.981Z,19.60
2023-02-19T09:36:55.373Z,19.60
2023-02-19T09:39:22.170Z,19.50
2023-02-19T09:41:53.074Z,19.50
2023-02-19T09:44:37.658Z,19.40
2023-02-19T09:47:13.046Z,19.40
2023-02-19T09:49:42.067Z,19.40
2023-02-19T09:52:32.673Z,19.40
2023-02-19T09:55:03.428Z,19.50
2023-02-19T09:57:33.628Z,19.50
2023-02-19T10:00:24.201Z,19.60
2023-02-19T10:02:53.046Z,19.60
2023-02-19T10:05:21.293Z,19.60
2023-02-19T10:07:52.030Z,19.70
2023-02-19T10:10:30.643Z,19.80
2023-02-19T10:13:12.008Z,19.80
2023-02-19T10:15:45.884Z,19.90
2023-02-19T10:18:12.925Z,19.90
2023-02-19T10:20:40.210Z,20.00
2023-02-19T10:23:10.897Z,20.00
2023-02-19T10:25:44.254Z,20.10
2023-02-19T10:28:17.082Z,20.10
2023-02-19T10:30:44.083Z,20.20
2023-02-19T10:33:13.738Z,20.20
2023-02-19T10:35:55.644Z,20.30
2023-02-19T10:38:28.933Z,20.40
2023-02-19T10:41:06.596Z,20.40
2023-02-19T10:43:39.906Z,20.50
2023-02-19T10:46:15.888Z,20.50
2023-02-19T10:48:58.362Z,20.60
2023-02-19T10:51:52.235Z,20.60
2023-02-19T10:54:36.112Z,20.60
2023-02-19T10:57:30.320Z,20.60
2023-02-19T11:00:12.743Z,20.70
2023-02-19T11:02:39.465Z,20.70
2023-02-19T11:05:08.912Z,20.70
2023-02-19T11:07:49.918Z,20.80
2023-02-19T11:10:27.985Z,20.80
2023-02-19T11:12:59.055Z,20.90
2023-02-19T11:15:35.874Z,20.90
2023-02-19T11:18:14.916Z,21.00
2023-02-19T11:20:57.837Z,21.00
2023-02-19T11:23:31.830Z,21.00
2023-02-19T11:26:02.873Z,21.10
2023-02-19T11:28:39.124Z,21.10
2023-02-19T11:31:22.070Z,21.10
2023-02-19T11:34:02.839Z,21.10
2023-02-19T11:36:36.982Z,21.10
2023-02-19T11:39:25.144Z,21.20
2023-02-19T11:42:30.246Z,21.30
2023-02-19T11:45:20.432Z,21.30
2023-02-19T11:48:10.565Z,21.30
2023-02-19T11:50:42.604Z,21.40
2023-02-19T11:53:28.642Z,21.40
2023-02-19T11:56:02.474Z,21.40
2023-02-19T11:59:00.798Z,21.40
2023-02-19T12:01:53.794Z,21.40
2023-02-19T12:04:29.752Z,21.40
2023-02-19T12:07:27.568Z,21.40
2023-02-19T12:09:57.097Z,21.40
2023-02-19T12:12:40.852Z,21.40
2023-02-19T12:15:26.851Z,21.40
2023-02-19T12:17:56.427Z,21.40
2023-02-19T12:20:33.437Z,21.40
2023-02-19T12:23:06.141Z,21.40
2023-02-19T12:25:51.686Z,21.40
2023-02-19T12:28:46.154Z,21.40
2023-02-19T12:31:35.329Z,21.50
2023-02-19T12:34:12.992Z,21.50
2023-02-19T12:36:58.388Z,21.50
2023-02-19T12:39:41.337Z,21.50
2023-02-19T12:42:26.530Z,21.60
2023-02-19T12:44:58.920Z,21.60
2023-02-19T12:47:32.130Z,21.60
2023-02-19T12:50:23.065Z,21.60
2023-02-19T12:52:57.787Z,21.50
2023-02-19T12:55:35.250Z,21.50
2023-02-19T12:58:05.545Z,21.40
2023-02-19T13:00:45.507Z,21.30
2023-02-19T13:03:30.140Z,21.20
2023-02-19T13:06:23.178Z,21.20
2023-02-19T13:09:09.792Z,21.20
2023-02-19T13:11:43.473Z,21.20
2023-02-19T13:14:27.344Z,21.30
2023-02-19T13:17:28.502Z,21.30
2023-02-19T13:20:07.859Z,21.40
2023-02-19T13:23:03.709Z,21.50
2023-02-19T13:25:42.302Z,21.50
2023-02-19T13:28:31.874Z,21.60
2023-02-19T13:31:24.918Z,21.70
2023-02-19T13:34:28.836Z,21.70
2023-02-19T13:36:56.259Z,21.80
2023-02-19T13:39:23.558Z,21.90
2023-02-19T13:41:53.143Z,21.90
2023-02-19T13:44:22.924Z,22.00
2023-02-19T13:46:50.712Z,22.00
2023-02-19T13:49:24.673Z,22.10
2023-02-19T13:51:56.794Z,22.10
2023-02-19T13:54:28.272Z,22.10
2023-02-19T13:57:22.964Z,22.10
2023-02-19T13:59:51.406Z,22.10
2023-02-19T14:02:21.269Z,22.10
2023-02-19T14:04:57.109Z,22.10
2023-02-19T14:07:26.596Z,22.10
2023-02-19T14:09:53.829Z,22.10
2023-02-19T14:12:30.497Z,22.00
2023-02-19T14:14:57.763Z,22.00
2023-02-19T14:17:42.454Z,22.00
2023-02-19T14:20:09.133Z,21.90
2023-02-19T14:22:45.142Z,21.90
2023-02-19T14:25:27.276Z,21.90
2023-02-19T14:28:12.730Z,21.80
2023-02-19T14:30:53.155Z,21.70
2023-02-19T14:33:24.356Z,21.70
2023-02-19T14:36:16.943Z,21.70
2023-02-19T14:39:02.450Z,21.60
2023-02-19T14:41:33.680Z,21.60
2023-02-19T14:44:02.158Z,21.70
2023-02-19T14:46:44.779Z,21.70
2023-02-19T14:49:34.309Z,21.70
2023-02-19T14:52:05.912Z,21.80
2023-02-19T14:54:48.516Z,21.80
2023-02-19T14:57:23.491Z,21.90
2023-02-19T14:59:59.122Z,22.00
2023-02-19T15:02:30.592Z,22.00
2023-02-19T15:04:57.927Z,22.00
2023-02-19T15:07:29.248Z,22.10
2023-02-19T15:10:04.901Z,22.10
2023-02-19T15:12:57.130Z,22.20
2023-02-19T15:15:36.482Z,22.20
2023-02-19T15:18:05.012Z,22.20
2023-02-19T15:20:36.236Z,22.30
2023-02-19T15:23:07.263Z,22.30
2023-02-19T15:25:37.659Z,22.30
2023-02-19T15:28:25.218Z,22.40
2023-02-19T15:31:07.705Z,22.40
2023-02-19T15:33:34.700Z,22.50
2023-02-19T15:36:09.526Z,22.50
2023-02-19T15:38:36.710Z,22.50
2023-02-19T15:41:03.930Z,22.60
2023-02-19T15:43:44.390Z,22.60
2023-02-19T15:46:22.400Z,22.60
2023-02-19T15:48:58.549Z,22.60
2023-02-19T15:51:36.246Z,22.60
2023-02-19T15:54:20.717Z,22.60
2023-02-19T15:56:57.489Z,22.60
2023-02-19T15:59:39.574Z,22.60
2023-02-19T16:02:12.200Z,22.60
2023-02-19T16:04:40.539Z,22.50
2023-02-19T16:07:23.978Z,22.50
2023-02-19T16:10:06.981Z,22.40
2023-02-19T16:12:33.850Z,22.40
2023-02-19T16:15:11.225Z,22.30
2023-02-19T16:17:43.109Z,22.30
2023-02-19T16:20:26.217Z,22.20
2023-02-19T16:22:59.026Z,22.20
2023-02-19T16:25:36.643Z,22.10
2023-02-19T16:28:22.858Z,22.10
2023-02-19T16:31:00.859Z,22.10
2023-02-19T16:33:31.892Z,22.10
2023-02-19T16:36:15.301Z,22.10
2023-02-19T16:38:58.140Z,22.10
2023-02-19T16:41:25.192Z,22.20
2023-02-19T16:43:51.932Z,22.20
2023-02-19T16:46:18.852Z,22.30
2023-02-19T16:48:46.166Z,22.30
2023-02-19T16:51:21.183Z,22.30
2023-02-19T16:53:47.902Z,22.40
2023-02-19T16:56:18.598Z,22.40
2023-02-19T16:58:45.390Z,22.40
2023-02-19T17:01:12.590Z,22.50
2023-02-19T17:03:39.862Z,22.50
2023-02-19T17:06:06.687Z,22.50
2023-02-19T17:08:44.262Z,22.50
2023-02-19T17:11:14.076Z,22.50
2023-02-19T17:13:42.349Z,22.50
2023-02-19T17:16:16.316Z,22.50
2023-02-19T17:18:43.080Z,22.40
2023-02-19T17:21:28.611Z,22.40
2023-02-19T17:23:57.035Z,22.30
2023-02-19T17:26:29.613Z,22.30
2023-02-19T17:29:01.036Z,22.20
2023-02-19T17:31:28.594Z,22.10
2023-02-19T17:33:55.936Z,22.10
2023-02-19T17:36:26.820Z,22.00
2023-02-19T17:38:54.501Z,21.90
2023-02-19T17:41:21.299Z,21.90
2023-02-19T17:43:48.219Z,21.80
2023-02-19T17:46:26.669Z,21.70
2023-02-19T17:48:54.173Z,21.70
2023-02-19T17:51:21.409Z,21.70
2023-02-19T17:53:48.241Z,21.70
2023-02-19T17:56:20.261Z,21.70
2023-02-19T17:58:47.776Z,21.70
2023-02-19T18:01:15.109Z,21.70
2023-02-19T18:03:42.160Z,21.70
2023-02-19T18:06:09.181Z,21.70
2023-02-19T18:08:35.982Z,21.70
2023-02-19T18:11:03.193Z,21.70
2023-02-19T18:13:30.107Z,21.60
2023-02-19T18:15:57.050Z,21.70
2023-02-19T18:18:23.895Z,21.60
2023-02-19T18:20:50.678Z,21.60
2023-02-19T18:23:17.754Z,21.70
2023-02-19T18:25:44.547Z,21.70
2023-02-19T18:28:11.298Z,21.70
2023-02-19T18:30:38.207Z,21.70
2023-02-19T18:33:05.011Z,21.80
2023-02-19T18:35:34.053Z,21.80
2023-02-19T18:38:01.682Z,21.80
2023-02-19T18:40:28.930Z,21.80
2023-02-19T18:42:55.850Z,21.80
2023-02-19T18:45:22.647Z,21.80
2023-02-19T18:47:50.446Z,21.80
2023-02-19T18:50:19.456Z,21.80
2023-02-19T18:52:46.593Z,21.70
2023-02-19T18:55:13.541Z,21.70
2023-02-19T18:57:40.336Z,21.70
2023-02-19T19:00:08.270Z,21.70
2023-02-19T19:02:48.255Z,21.70
2023-02-19T19:05:22.648Z,21.70
2023-02-19T19:07:55.227Z,21.70
2023-02-19T19:10:23.086Z,21.70
2023-02-19T19:12:49.957Z,21.70
2023-02-19T19:15:24.114Z,21.70
2023-02-19T19:17:51.103Z,21.70
2023-02-19T19:20:20.355Z,21.80
2023-02-19T19:22:50.194Z,21.80
2023-02-19T19:25:17.324Z,21.80
2023-02-19T19:27:44.069Z,21.80
2023-02-19T19:30:11.234Z,21.80
2023-02-19T19:32:38.589Z,21.80
2023-02-19T19:35:05.489Z,21.80
2023-02-19T19:37:32.414Z,21.80
2023-02-19T19:39:59.160Z,21.80
2023-02-19T19:42:25.976Z,21.80
2023-02-19T19:44:52.770Z,21.80
2023-02-19T19:47:20.260Z,21.80
2023-02-19T19:49:47.435Z,21.70
2023-02-19T19:52:14.843Z,21.70
2023-02-19T19:54:43.100Z,21.60
2023-02-19T19:57:11.004Z,21.60
2023-02-19T19:59:39.220Z,21.50
2023-02-19T20:02:07.676Z,21.50
2023-02-19T20:04:34.806Z,21.50
2023-02-19T20:07:02.206Z,21.50
2023-02-19T20:09:29.359Z,21.50
2023-02-19T20:11:56.766Z,21.50
2023-02-19T20:14:25.604Z,21.40
2023-02-19T20:16:54.982Z,21.40
2023-02-19T20:19:22.103Z,21.40
2023-02-19T20:21:52.173Z,21.40
2023-02-19T20:24:24.098Z,21.40
2023-02-19T20:26:53.558Z,21.40
2023-02-19T20:29:20.785Z,21.30
2023-02-19T20:31:49.777Z,21.30
2023-02-19T20:34:17.378Z,21.30
2023-02-19T20:36:47.110Z,21.20
2023-02-19T20:39:18.741Z,21.20
2023-02-19T20:41:51.333Z,21.20
2023-02-19T20:44:18.666Z,21.20
2023-02-19T20:46:50.313Z,21.20
2023-02-19T20:49:19.137Z,21.20
2023-02-19T20:51:48.245Z,21.20
2023-02-19T20:54:17.666Z,21.20
2023-02-19T20:56:46.229Z,21.20
2023-02-19T20:59:14.070Z,21.20
2023-02-19T21:01:42.133Z,21.20
2023-02-19T21:04:10.216Z,21.20
2023-02-19T21:06:39.025Z,21.20
2023-02-19T21:09:07.990Z,21.20
2023-02-19T21:11:34.927Z,21.20
2023-02-19T21:14:02.018Z,21.20
2023-02-19T21:16:31.832Z,21.20
2023-02-19T21:18:58.996Z,21.20
2023-02-19T21:21:26.406Z,21.10
2023-02-19T21:23:57.697Z,21.10
2023-02-19T21:26:32.194Z,21.10
2023-02-19T21:28:58.988Z,21.00
2023-02-19T21:31:39.260Z,21.00
2023-02-19T21:34:07.745Z,20.90
2023-02-19T21:36:35.115Z,20.80
2023-02-19T21:39:02.908Z,20.80
2023-02-19T21:41:29.960Z,20.80
2023-02-19T21:43:57.385Z,20.80
2023-02-19T21:46:25.386Z,20.70
2023-02-19T21:48:53.823Z,20.70
2023-02-19T21:51:27.416Z,20.70
2023-02-19T21:53:54.175Z,20.70
2023-02-19T21:56:23.317Z,20.70
2023-02-19T21:58:50.804Z,20.70
2023-02-19T22:01:44.396Z,20.70
2023-02-19T22:04:14.936Z,20.80
2023-02-19T22:06:42.137Z,20.80
2023-02-19T22:09:10.291Z,20.80
2023-02-19T22:11:37.112Z,20.80
2023-02-19T22:14:04.702Z,20.80
2023-02-19T22:16:31.995Z,20.80
2023-02-19T22:18:59.919Z,20.80
2023-02-19T22:21:29.452Z,20.80
2023-02-19T22:23:56.242Z,20.80
2023-02-19T22:26:30.996Z,20.90
2023-02-19T22:28:59.521Z,20.90
2023-02-19T22:31:27.822Z,20.90
2023-02-19T22:33:56.441Z,20.90
2023-02-19T22:36:25.811Z,20.90
2023-02-19T22:38:52.952Z,20.90
2023-02-19T22:41:20.742Z,20.90
2023-02-19T22:43:48.132Z,20.90
2023-02-19T22:46:25.808Z,20.90
2023-02-19T22:48:52.658Z,20.90
2023-02-19T22:51:21.799Z,20.90
2023-02-19T22:53:54.357Z,20.90
2023-02-19T22:56:22.726Z,20.90
2023-02-19T22:58:49.968Z,20.90
2023-02-19T23:01:17.390Z,20.90
2023-02-19T23:03:56.447Z,20.90
2023-02-19T23:06:28.882Z,20.90
2023-02-19T23:08:58.215Z,20.90
2023-02-19T23:11:31.491Z,20.90
2023-02-19T23:13:58.547Z,20.90
2023-02-19T23:16:25.812Z,20.90
2023-02-19T23:18:52.774Z,20.90
2023-02-19T23:21:20.110Z,20.90
2023-02-19T23:23:47.571Z,20.90
2023-02-19T23:26:15.820Z,20.90
2023-02-19T23:28:44.028Z,20.90
2023-02-19T23:31:11.358Z,20.90
2023-02-19T23:33:38.332Z,20.90
2023-02-19T23:36:05.368Z,20.90
2023-02-19T23:38:32.173Z,20.90
2023-02-19T23:40:59.499Z,20.90
2023-02-19T23:43:26.491Z,20.90
2023-02-19T23:45:53.341Z,20.90
2023-02-19T23:48:20.224Z,20.80
2023-02-19T23:50:47.831Z,20.80
2023-02-19T23:53:14.610Z,20.80
2023-02-19T23:55:41.386Z,20.80
2023-02-19T23:58:08.158Z,20.80
